createdAt,value
2023-04-15T06:34:08.394Z,17.38
2023-04-15T06:39:11.467Z,12.67
2023-04-15T06:44:13.891Z,14.13
2023-04-15T06:49:17.796Z,12.63
2023-04-15T06:54:20.625Z,15.10
2023-04-15T06:59:23.131Z,12.88
2023-04-15T07:04:27.351Z,14.37
2023-04-15T07:09:30.122Z,12.37
2023-04-15T07:14:32.634Z,15.05
2023-04-15T07:19:36.799Z,13.73
2023-04-15T07:24:39.344Z,13.83
2023-04-15T07:29:41.884Z,12.82
2023-04-15T07:34:48.530Z,12.40
2023-04-15T07:39:51.188Z,12.87
2023-04-15T07:44:53.825Z,14.40
2023-04-15T07:49:57.856Z,11.77
2023-04-15T07:55:00.466Z,14.23
2023-04-15T08:00:05.354Z,12.75
2023-04-15T08:05:16.696Z,11.63
2023-04-15T08:10:19.495Z,16.70
2023-04-15T08:15:22.215Z,16.05
2023-04-15T08:20:28.745Z,20.20
2023-04-15T08:25:32.288Z,14.75
2023-04-15T08:30:35.919Z,13.40
2023-04-15T08:35:39.908Z,12.83
2023-04-15T08:40:44.482Z,13.45
2023-04-15T08:45:49.727Z,15.60
2023-04-15T08:50:53.828Z,15.37
2023-04-15T08:56:00.036Z,15.40
2023-04-15T09:01:03.061Z,18.33
2023-04-15T09:06:07.248Z,16.53
2023-04-15T09:11:09.876Z,12.85
2023-04-15T09:16:13.432Z,14.53
2023-04-15T09:21:18.713Z,13.17
2023-04-15T09:26:41.147Z,17.95
2023-04-15T09:31:43.572Z,16.57
2023-04-15T09:36:57.584Z,18.50
2023-04-15T09:42:07.839Z,14.52
2023-04-15T09:47:31.003Z,16.40
2023-04-15T09:52:41.917Z,12.40
2023-04-15T09:57:53.960Z,14.77
2023-04-15T10:02:56.764Z,20.30
2023-04-15T10:08:01.763Z,20.47
2023-04-15T10:13:05.348Z,14.95
2023-04-15T10:18:11.373Z,14.00
2023-04-15T10:23:16.282Z,13.43
2023-04-15T10:28:22.500Z,13.00
2023-04-15T10:33:26.965Z,14.97
2023-04-15T10:38:35.931Z,14.10
2023-04-15T10:43:38.714Z,14.63
2023-04-15T10:48:49.502Z,14.32
2023-04-15T10:53:57.710Z,15.00
2023-04-15T10:59:00.723Z,16.23
2023-04-15T11:04:03.678Z,18.60
2023-04-15T11:09:07.819Z,23.57
2023-04-15T11:14:16.304Z,16.35
2023-04-15T11:19:18.987Z,20.67
2023-04-15T11:24:26.590Z,12.37
2023-04-15T11:29:30.522Z,15.00
2023-04-15T11:34:36.282Z,16.77
2023-04-15T11:39:40.359Z,15.93
2023-04-15T11:44:42.910Z,16.55
2023-04-15T11:49:45.513Z,16.53
2023-04-15T11:54:49.476Z,13.73
2023-04-15T11:59:55.606Z,13.32
2023-04-15T12:05:04.698Z,12.73
2023-04-15T12:10:08.711Z,19.30
2023-04-15T12:15:11.286Z,14.98
2023-04-15T12:20:25.288Z,26.83
2023-04-15T12:25:36.775Z,14.87
2023-04-15T12:30:50.370Z,17.98
2023-04-15T12:35:55.234Z,17.87
2023-04-15T12:40:59.183Z,26.10
2023-04-15T12:46:01.661Z,17.33
2023-04-15T12:51:06.790Z,16.10
2023-04-15T12:56:10.639Z,16.30
2023-04-15T13:01:13.212Z,12.98
2023-04-15T13:06:18.478Z,12.00
2023-04-15T13:11:23.115Z,13.67
2023-04-15T13:16:25.548Z,13.85
2023-04-15T13:21:31.470Z,15.03
2023-04-15T13:26:35.684Z,10.40
2023-04-15T13:31:39.380Z,13.23
2023-04-15T13:36:42.016Z,9.63
2023-04-15T13:41:45.899Z,9.83
2023-04-15T13:46:48.313Z,10.43
2023-04-15T13:51:51.437Z,12.17
2023-04-15T13:56:55.545Z,17.27
2023-04-15T14:01:58.099Z,41.38
2023-04-15T14:07:05.322Z,15.50
2023-04-15T14:12:09.361Z,16.47
2023-04-15T14:17:14.832Z,11.60
2023-04-15T14:22:17.278Z,12.60
2023-04-15T14:27:21.506Z,12.73
2023-04-15T14:32:25.955Z,9.40
2023-04-15T14:37:28.822Z,11.87
2023-04-15T14:42:32.958Z,10.37
2023-04-15T14:47:35.839Z,13.40
2023-04-15T14:52:38.578Z,14.10
2023-04-15T14:57:43.134Z,9.70
2023-04-15T15:02:45.846Z,10.30
2023-04-15T15:07:48.470Z,13.20
2023-04-15T15:12:52.948Z,9.10
2023-04-15T15:17:55.646Z,11.57
2023-04-15T15:22:58.756Z,10.17
2023-04-15T15:28:02.707Z,9.20
2023-04-15T15:33:05.405Z,8.35
2023-04-15T15:38:11.735Z,9.60
2023-04-15T15:43:15.564Z,9.97
2023-04-15T15:48:18.414Z,8.88
2023-04-15T15:53:20.969Z,9.87
2023-04-15T15:58:24.863Z,11.60
2023-04-15T16:03:27.643Z,13.07
2023-04-15T16:08:30.118Z,11.33
2023-04-15T16:13:34.519Z,9.57
2023-04-15T16:18:39.995Z,12.23
2023-04-15T16:23:42.617Z,12.48
2023-04-15T16:28:46.654Z,9.10
2023-04-15T16:33:49.206Z,8.03
2023-04-15T16:38:51.581Z,9.38
2023-04-15T16:44:05.272Z,9.07
2023-04-15T16:49:07.684Z,6.90
2023-04-15T16:54:10.084Z,7.85
2023-04-15T16:59:13.954Z,6.43
2023-04-15T17:04:16.576Z,10.03
2023-04-15T17:09:19.114Z,14.48
2023-04-15T17:14:27.616Z,14.57
2023-04-15T17:19:30.047Z,13.48
2023-04-15T17:24:32.471Z,9.63
2023-04-15T17:29:36.248Z,7.10
2023-04-15T17:34:49.445Z,7.72
2023-04-15T17:39:53.685Z,8.67
2023-04-15T17:44:57.467Z,9.87
2023-04-15T17:50:00.026Z,9.35
2023-04-15T17:55:02.481Z,9.00
2023-04-15T18:00:09.681Z,9.18
2023-04-15T18:05:15.654Z,9.77
2023-04-15T18:10:21.023Z,8.57
2023-04-15T18:15:24.949Z,10.05
2023-04-15T18:20:27.627Z,8.47
2023-04-15T18:25:31.708Z,11.30
2023-04-15T18:30:35.765Z,12.90
2023-04-15T18:35:38.538Z,8.27
2023-04-15T18:40:40.961Z,8.32
2023-04-15T18:45:44.964Z,7.90
2023-04-15T18:50:50.374Z,6.65
2023-04-15T18:55:52.907Z,8.57
2023-04-15T19:01:00.111Z,7.40
2023-04-15T19:06:03.000Z,9.13
2023-04-15T19:11:05.591Z,9.13
2023-04-15T19:16:09.412Z,8.77
2023-04-15T19:21:12.685Z,7.47
2023-04-15T19:26:15.195Z,6.33
2023-04-15T19:31:19.523Z,6.70
2023-04-15T19:36:22.070Z,6.47
2023-04-15T19:41:24.454Z,6.27
2023-04-15T19:46:31.166Z,6.15
2023-04-15T19:51:33.859Z,6.73
2023-04-15T19:56:39.239Z,6.15
2023-04-15T20:01:43.123Z,7.93
2023-04-15T20:06:45.532Z,7.30
2023-04-15T20:12:47.931Z,7.25
2023-04-15T20:17:11.639Z,8.37
2023-04-15T20:22:14.054Z,9.18
2023-04-15T20:27:19.301Z,9.80
2023-04-15T20:32:23.087Z,7.07
2023-04-15T20:37:25.577Z,7.05
2023-04-15T20:42:28.097Z,9.27
2023-04-15T20:47:34.521Z,7.28
2023-04-15T20:52:36.925Z,6.85
2023-04-15T20:57:39.309Z,5.67
2023-04-15T21:02:43.641Z,6.07
2023-04-15T21:07:46.206Z,6.15
2023-04-15T21:12:48.630Z,7.57
2023-04-15T21:17:52.500Z,6.25
2023-04-15T21:22:54.949Z,6.00
2023-04-15T21:27:57.319Z,6.70
2023-04-15T21:33:01.115Z,6.47
2023-04-15T21:38:03.639Z,7.63
2023-04-15T21:43:09.403Z,6.35
2023-04-15T21:48:13.255Z,6.90
2023-04-15T21:53:18.395Z,10.50
2023-04-15T21:58:20.791Z,9.07
2023-04-15T22:03:24.893Z,6.93
2023-04-15T22:08:27.706Z,7.22
2023-04-15T22:13:30.239Z,7.15
2023-04-15T22:18:34.176Z,7.43
2023-04-15T22:23:36.690Z,6.85
2023-04-15T22:28:39.219Z,8.07
2023-04-15T22:33:45.856Z,6.07
2023-04-15T22:38:48.551Z,7.18
2023-04-15T22:43:53.773Z,8.20
2023-04-15T22:49:00.316Z,6.38
2023-04-15T22:54:03.177Z,6.25
2023-04-15T22:59:08.490Z,11.77
2023-04-15T23:04:23.069Z,7.85
2023-04-15T23:09:28.441Z,8.13
2023-04-15T23:14:31.664Z,6.38
2023-04-15T23:19:38.208Z,6.93
2023-04-15T23:24:40.602Z,7.23
2023-04-15T23:29:43.039Z,7.90
2023-04-15T23:34:49.812Z,8.97
2023-04-15T23:39:52.245Z,8.48
2023-04-15T23:44:54.643Z,10.05
2023-04-15T23:49:58.924Z,8.03
2023-04-15T23:55:01.760Z,7.97
